sensor_id;sensor_type;location;lat;lon;timestamp;temperature;humidity
62339;DHT22;48368;53.406;6.214;2023-04-25T00:01:56;7.40;99.90
62339;DHT22;48368;53.406;6.214;2023-04-25T00:04:23;7.40;99.90
62339;DHT22;48368;53.406;6.214;2023-04-25T00:06:48;7.30;99.90
62339;DHT22;48368;53.406;6.214;2023-04-25T00:09:14;7.40;99.90
62339;DHT22;48368;53.406;6.214;2023-04-25T00:11:40;7.40;99.90
62339;DHT22;48368;53.406;6.214;2023-04-25T00:14:06;7.30;99.90
62339;DHT22;48368;53.406;6.214;2023-04-25T00:16:32;7.40;99.90
62339;DHT22;48368;53.406;6.214;2023-04-25T00:19:01;7.50;99.90
62339;DHT22;48368;53.406;6.214;2023-04-25T00:21:28;7.50;99.90
62339;DHT22;48368;53.406;6.214;2023-04-25T00:23:55;7.50;99.90
62339;DHT22;48368;53.406;6.214;2023-04-25T00:26:22;7.50;99.90
62339;DHT22;48368;53.406;6.214;2023-04-25T00:28:48;7.50;99.90
62339;DHT22;48368;53.406;6.214;2023-04-25T00:31:14;7.50;99.90
62339;DHT22;48368;53.406;6.214;2023-04-25T00:33:40;7.40;99.90
62339;DHT22;48368;53.406;6.214;2023-04-25T00:36:06;7.50;99.90
62339;DHT22;48368;53.406;6.214;2023-04-25T00:38:32;7.40;99.90
62339;DHT22;48368;53.406;6.214;2023-04-25T00:40:57;7.40;99.90
62339;DHT22;48368;53.406;6.214;2023-04-25T00:43:28;7.40;99.90
62339;DHT22;48368;53.406;6.214;2023-04-25T00:45:56;7.40;99.90
62339;DHT22;48368;53.406;6.214;2023-04-25T00:48:23;7.40;99.90
62339;DHT22;48368;53.406;6.214;2023-04-25T00:50:53;7.30;99.90
62339;DHT22;48368;53.406;6.214;2023-04-25T00:53:22;7.30;99.90
62339;DHT22;48368;53.406;6.214;2023-04-25T00:55:48;7.30;99.90
62339;DHT22;48368;53.406;6.214;2023-04-25T00:58:17;7.30;99.90
62339;DHT22;48368;53.406;6.214;2023-04-25T01:00:44;7.30;99.90
62339;DHT22;48368;53.406;6.214;2023-04-25T01:03:10;7.30;99.90
62339;DHT22;48368;53.406;6.214;2023-04-25T01:05:37;7.30;99.90
62339;DHT22;48368;53.406;6.214;2023-04-25T01:08:02;7.30;99.90
62339;DHT22;48368;53.406;6.214;2023-04-25T01:10:28;7.40;99.90
62339;DHT22;48368;53.406;6.214;2023-04-25T01:12:54;7.30;99.90
62339;DHT22;48368;53.406;6.214;2023-04-25T01:15:20;7.30;99.90
62339;DHT22;48368;53.406;6.214;2023-04-25T01:17:45;7.20;99.90
62339;DHT22;48368;53.406;6.214;2023-04-25T01:20:12;7.30;99.90
62339;DHT22;48368;53.406;6.214;2023-04-25T01:22:39;7.30;99.90
62339;DHT22;48368;53.406;6.214;2023-04-25T01:25:09;7.20;99.90
62339;DHT22;48368;53.406;6.214;2023-04-25T01:27:37;7.20;99.90
62339;DHT22;48368;53.406;6.214;2023-04-25T01:30:03;7.20;99.90
62339;DHT22;48368;53.406;6.214;2023-04-25T01:32:30;7.20;99.90
62339;DHT22;48368;53.406;6.214;2023-04-25T01:35:04;7.20;99.90
62339;DHT22;48368;53.406;6.214;2023-04-25T01:37:41;7.10;99.90
62339;DHT22;48368;53.406;6.214;2023-04-25T01:40:11;7.10;99.90
62339;DHT22;48368;53.406;6.214;2023-04-25T01:42:39;7.10;99.90
62339;DHT22;48368;53.406;6.214;2023-04-25T01:45:06;7.10;99.90
62339;DHT22;48368;53.406;6.214;2023-04-25T01:47:33;7.10;99.90
62339;DHT22;48368;53.406;6.214;2023-04-25T01:50:01;7.10;99.90
62339;DHT22;48368;53.406;6.214;2023-04-25T01:52:26;7.10;99.90
62339;DHT22;48368;53.406;6.214;2023-04-25T01:54:52;7.00;99.90
62339;DHT22;48368;53.406;6.214;2023-04-25T01:57:18;7.00;99.90
62339;DHT22;48368;53.406;6.214;2023-04-25T01:59:44;7.00;99.90
62339;DHT22;48368;53.406;6.214;2023-04-25T02:02:10;6.90;99.90
62339;DHT22;48368;53.406;6.214;2023-04-25T02:04:36;7.00;99.90
62339;DHT22;48368;53.406;6.214;2023-04-25T02:07:01;6.90;99.90
62339;DHT22;48368;53.406;6.214;2023-04-25T02:09:28;6.90;99.90
62339;DHT22;48368;53.406;6.214;2023-04-25T02:11:54;6.90;99.90
62339;DHT22;48368;53.406;6.214;2023-04-25T02:14:19;6.80;99.90
62339;DHT22;48368;53.406;6.214;2023-04-25T02:16:45;6.90;99.90
62339;DHT22;48368;53.406;6.214;2023-04-25T02:19:11;6.90;99.90
62339;DHT22;48368;53.406;6.214;2023-04-25T02:21:37;6.90;99.90
62339;DHT22;48368;53.406;6.214;2023-04-25T02:24:03;6.90;99.90
62339;DHT22;48368;53.406;6.214;2023-04-25T02:26:36;7.00;99.90
62339;DHT22;48368;53.406;6.214;2023-04-25T02:29:02;7.00;99.90
62339;DHT22;48368;53.406;6.214;2023-04-25T02:31:27;7.00;99.90
62339;DHT22;48368;53.406;6.214;2023-04-25T02:33:53;7.00;99.90
62339;DHT22;48368;53.406;6.214;2023-04-25T02:36:18;6.90;99.90
62339;DHT22;48368;53.406;6.214;2023-04-25T02:38:44;6.90;99.90
62339;DHT22;48368;53.406;6.214;2023-04-25T02:41:10;6.90;99.90
62339;DHT22;48368;53.406;6.214;2023-04-25T02:43:35;6.80;99.90
62339;DHT22;48368;53.406;6.214;2023-04-25T02:46:01;6.90;99.90
62339;DHT22;48368;53.406;6.214;2023-04-25T02:48:27;6.90;99.90
62339;DHT22;48368;53.406;6.214;2023-04-25T02:50:53;6.80;99.90
62339;DHT22;48368;53.406;6.214;2023-04-25T02:53:19;6.80;99.90
62339;DHT22;48368;53.406;6.214;2023-04-25T02:55:45;6.80;99.90
62339;DHT22;48368;53.406;6.214;2023-04-25T02:58:10;6.80;99.90
62339;DHT22;48368;53.406;6.214;2023-04-25T03:00:36;6.90;99.90
62339;DHT22;48368;53.406;6.214;2023-04-25T03:03:02;6.80;99.90
62339;DHT22;48368;53.406;6.214;2023-04-25T03:05:27;6.70;99.90
62339;DHT22;48368;53.406;6.214;2023-04-25T03:07:53;6.70;99.90
62339;DHT22;48368;53.406;6.214;2023-04-25T03:10:18;6.80;99.90
62339;DHT22;48368;53.406;6.214;2023-04-25T03:12:44;6.80;99.90
62339;DHT22;48368;53.406;6.214;2023-04-25T03:15:10;6.80;99.90
62339;DHT22;48368;53.406;6.214;2023-04-25T03:17:35;6.70;99.90
62339;DHT22;48368;53.406;6.214;2023-04-25T03:20:01;6.80;99.90
62339;DHT22;48368;53.406;6.214;2023-04-25T03:22:29;6.70;99.90
62339;DHT22;48368;53.406;6.214;2023-04-25T03:24:55;6.70;99.90
62339;DHT22;48368;53.406;6.214;2023-04-25T03:27:21;6.70;99.90
62339;DHT22;48368;53.406;6.214;2023-04-25T03:29:46;6.70;99.90
62339;DHT22;48368;53.406;6.214;2023-04-25T03:32:12;6.70;99.90
62339;DHT22;48368;53.406;6.214;2023-04-25T03:34:37;6.70;99.90
62339;DHT22;48368;53.406;6.214;2023-04-25T03:37:03;6.60;99.90
62339;DHT22;48368;53.406;6.214;2023-04-25T03:39:29;6.70;99.90
62339;DHT22;48368;53.406;6.214;2023-04-25T03:41:55;6.60;99.90
62339;DHT22;48368;53.406;6.214;2023-04-25T03:44:20;6.60;99.90
62339;DHT22;48368;53.406;6.214;2023-04-25T03:46:46;6.60;99.90
62339;DHT22;48368;53.406;6.214;2023-04-25T03:49:12;6.60;99.90
62339;DHT22;48368;53.406;6.214;2023-04-25T03:51:37;6.60;99.90
62339;DHT22;48368;53.406;6.214;2023-04-25T03:54:03;6.60;99.90
62339;DHT22;48368;53.406;6.214;2023-04-25T03:56:29;6.50;99.90
62339;DHT22;48368;53.406;6.214;2023-04-25T03:58:55;6.50;99.90
62339;DHT22;48368;53.406;6.214;2023-04-25T04:01:20;6.50;99.90
62339;DHT22;48368;53.406;6.214;2023-04-25T04:03:46;6.50;99.90
62339;DHT22;48368;53.406;6.214;2023-04-25T04:06:12;6.50;99.90
62339;DHT22;48368;53.406;6.214;2023-04-25T04:08:38;6.50;99.90
62339;DHT22;48368;53.406;6.214;2023-04-25T04:11:04;6.40;99.90
62339;DHT22;48368;53.406;6.214;2023-04-25T04:13:30;6.50;99.90
62339;DHT22;48368;53.406;6.214;2023-04-25T04:15:56;6.50;99.90
62339;DHT22;48368;53.406;6.214;2023-04-25T04:18:22;6.50;99.90
62339;DHT22;48368;53.406;6.214;2023-04-25T04:20:48;6.40;99.90
62339;DHT22;48368;53.406;6.214;2023-04-25T04:23:14;6.50;99.90
62339;DHT22;48368;53.406;6.214;2023-04-25T04:25:39;6.60;99.90
62339;DHT22;48368;53.406;6.214;2023-04-25T04:28:06;6.60;99.90
62339;DHT22;48368;53.406;6.214;2023-04-25T04:30:32;6.70;99.90
62339;DHT22;48368;53.406;6.214;2023-04-25T04:33:02;6.60;99.90
62339;DHT22;48368;53.406;6.214;2023-04-25T04:35:28;6.50;99.90
62339;DHT22;48368;53.406;6.214;2023-04-25T04:37:53;6.40;99.90
62339;DHT22;48368;53.406;6.214;2023-04-25T04:40:20;6.30;99.90
62339;DHT22;48368;53.406;6.214;2023-04-25T04:42:46;6.30;99.90
62339;DHT22;48368;53.406;6.214;2023-04-25T04:45:11;6.30;99.90
62339;DHT22;48368;53.406;6.214;2023-04-25T04:47:37;6.20;99.90
62339;DHT22;48368;53.406;6.214;2023-04-25T04:50:08;6.20;99.90
62339;DHT22;48368;53.406;6.214;2023-04-25T04:52:38;6.20;99.90
62339;DHT22;48368;53.406;6.214;2023-04-25T04:55:04;6.30;99.90
62339;DHT22;48368;53.406;6.214;2023-04-25T04:57:31;6.30;99.90
62339;DHT22;48368;53.406;6.214;2023-04-25T04:59:58;6.40;99.90
62339;DHT22;48368;53.406;6.214;2023-04-25T05:02:24;6.50;99.90
62339;DHT22;48368;53.406;6.214;2023-04-25T05:04:51;6.50;99.90
62339;DHT22;48368;53.406;6.214;2023-04-25T05:07:17;6.50;99.90
62339;DHT22;48368;53.406;6.214;2023-04-25T05:09:43;6.50;99.90
62339;DHT22;48368;53.406;6.214;2023-04-25T05:12:09;6.60;99.90
62339;DHT22;48368;53.406;6.214;2023-04-25T05:14:34;6.60;99.90
62339;DHT22;48368;53.406;6.214;2023-04-25T05:17:00;6.60;99.90
62339;DHT22;48368;53.406;6.214;2023-04-25T05:19:26;6.50;99.90
62339;DHT22;48368;53.406;6.214;2023-04-25T05:21:52;6.60;99.90
62339;DHT22;48368;53.406;6.214;2023-04-25T05:24:18;6.60;99.90
62339;DHT22;48368;53.406;6.214;2023-04-25T05:26:44;6.60;99.90
62339;DHT22;48368;53.406;6.214;2023-04-25T05:29:10;6.60;99.90
62339;DHT22;48368;53.406;6.214;2023-04-25T05:31:36;6.70;99.90
62339;DHT22;48368;53.406;6.214;2023-04-25T05:34:02;6.60;99.90
62339;DHT22;48368;53.406;6.214;2023-04-25T05:36:28;6.60;99.90
62339;DHT22;48368;53.406;6.214;2023-04-25T05:38:54;6.60;99.90
62339;DHT22;48368;53.406;6.214;2023-04-25T05:41:19;6.60;99.90
62339;DHT22;48368;53.406;6.214;2023-04-25T05:43:45;6.70;99.90
62339;DHT22;48368;53.406;6.214;2023-04-25T05:46:14;6.80;99.90
62339;DHT22;48368;53.406;6.214;2023-04-25T05:48:39;6.90;99.90
62339;DHT22;48368;53.406;6.214;2023-04-25T05:51:05;7.10;99.90
62339;DHT22;48368;53.406;6.214;2023-04-25T05:53:31;7.20;99.90
62339;DHT22;48368;53.406;6.214;2023-04-25T05:55:56;7.40;99.90
62339;DHT22;48368;53.406;6.214;2023-04-25T05:58:22;7.50;99.90
62339;DHT22;48368;53.406;6.214;2023-04-25T06:00:48;7.60;99.90
62339;DHT22;48368;53.406;6.214;2023-04-25T06:03:13;7.50;99.90
62339;DHT22;48368;53.406;6.214;2023-04-25T06:05:42;7.60;99.90
62339;DHT22;48368;53.406;6.214;2023-04-25T06:08:08;7.50;99.90
62339;DHT22;48368;53.406;6.214;2023-04-25T06:10:34;7.60;99.90
62339;DHT22;48368;53.406;6.214;2023-04-25T06:13:00;7.60;99.90
62339;DHT22;48368;53.406;6.214;2023-04-25T06:15:25;7.40;99.90
62339;DHT22;48368;53.406;6.214;2023-04-25T06:17:51;7.30;99.90
62339;DHT22;48368;53.406;6.214;2023-04-25T06:20:17;7.20;99.90
62339;DHT22;48368;53.406;6.214;2023-04-25T06:22:42;7.10;99.90
62339;DHT22;48368;53.406;6.214;2023-04-25T06:25:08;7.00;99.90
62339;DHT22;48368;53.406;6.214;2023-04-25T06:27:39;7.00;99.90
62339;DHT22;48368;53.406;6.214;2023-04-25T06:30:05;7.00;99.90
62339;DHT22;48368;53.406;6.214;2023-04-25T06:32:31;7.10;99.90
62339;DHT22;48368;53.406;6.214;2023-04-25T06:34:57;7.10;99.90
62339;DHT22;48368;53.406;6.214;2023-04-25T06:37:23;7.10;99.90
62339;DHT22;48368;53.406;6.214;2023-04-25T06:39:49;7.10;99.90
62339;DHT22;48368;53.406;6.214;2023-04-25T06:42:14;7.10;99.90
62339;DHT22;48368;53.406;6.214;2023-04-25T06:44:40;7.20;99.90
62339;DHT22;48368;53.406;6.214;2023-04-25T06:47:05;7.20;99.90
62339;DHT22;48368;53.406;6.214;2023-04-25T06:49:31;7.30;99.90
62339;DHT22;48368;53.406;6.214;2023-04-25T06:51:57;7.30;99.90
62339;DHT22;48368;53.406;6.214;2023-04-25T06:54:22;7.40;99.90
62339;DHT22;48368;53.406;6.214;2023-04-25T06:56:50;7.30;99.90
62339;DHT22;48368;53.406;6.214;2023-04-25T06:59:16;7.30;99.90
62339;DHT22;48368;53.406;6.214;2023-04-25T07:01:41;7.30;99.90
62339;DHT22;48368;53.406;6.214;2023-04-25T07:04:07;7.30;99.90
62339;DHT22;48368;53.406;6.214;2023-04-25T07:06:33;7.20;99.90
62339;DHT22;48368;53.406;6.214;2023-04-25T07:08:58;7.00;99.90
62339;DHT22;48368;53.406;6.214;2023-04-25T07:11:24;6.80;99.90
62339;DHT22;48368;53.406;6.214;2023-04-25T07:13:50;6.80;99.90
62339;DHT22;48368;53.406;6.214;2023-04-25T07:16:16;6.70;99.90
62339;DHT22;48368;53.406;6.214;2023-04-25T07:18:41;6.80;99.90
62339;DHT22;48368;53.406;6.214;2023-04-25T07:21:07;7.00;99.90
62339;DHT22;48368;53.406;6.214;2023-04-25T07:23:33;7.30;99.90
62339;DHT22;48368;53.406;6.214;2023-04-25T07:25:58;7.50;99.90
62339;DHT22;48368;53.406;6.214;2023-04-25T07:28:25;7.60;99.90
62339;DHT22;48368;53.406;6.214;2023-04-25T07:30:50;7.50;99.90
62339;DHT22;48368;53.406;6.214;2023-04-25T07:33:18;7.20;99.90
62339;DHT22;48368;53.406;6.214;2023-04-25T07:35:45;6.90;99.90
62339;DHT22;48368;53.406;6.214;2023-04-25T07:38:11;6.60;99.90
62339;DHT22;48368;53.406;6.214;2023-04-25T07:40:37;6.70;99.90
62339;DHT22;48368;53.406;6.214;2023-04-25T07:43:02;6.50;99.90
62339;DHT22;48368;53.406;6.214;2023-04-25T07:45:28;6.30;99.90
62339;DHT22;48368;53.406;6.214;2023-04-25T07:47:53;6.10;99.90
62339;DHT22;48368;53.406;6.214;2023-04-25T07:50:19;6.00;99.90
62339;DHT22;48368;53.406;6.214;2023-04-25T07:52:45;5.90;99.90
62339;DHT22;48368;53.406;6.214;2023-04-25T07:55:10;5.80;99.90
62339;DHT22;48368;53.406;6.214;2023-04-25T07:57:36;5.90;99.90
62339;DHT22;48368;53.406;6.214;2023-04-25T08:00:04;6.10;99.90
62339;DHT22;48368;53.406;6.214;2023-04-25T08:02:30;6.20;99.90
62339;DHT22;48368;53.406;6.214;2023-04-25T08:04:56;6.30;99.90
62339;DHT22;48368;53.406;6.214;2023-04-25T08:07:21;6.40;99.90
62339;DHT22;48368;53.406;6.214;2023-04-25T08:09:47;6.60;99.90
62339;DHT22;48368;53.406;6.214;2023-04-25T08:12:13;6.80;99.90
62339;DHT22;48368;53.406;6.214;2023-04-25T08:14:38;7.10;99.90
62339;DHT22;48368;53.406;6.214;2023-04-25T08:17:05;7.40;99.90
62339;DHT22;48368;53.406;6.214;2023-04-25T08:19:30;7.70;99.90
62339;DHT22;48368;53.406;6.214;2023-04-25T08:21:56;8.00;99.90
62339;DHT22;48368;53.406;6.214;2023-04-25T08:24:23;8.20;99.90
62339;DHT22;48368;53.406;6.214;2023-04-25T08:26:51;8.50;99.90
62339;DHT22;48368;53.406;6.214;2023-04-25T08:29:17;8.60;99.90
62339;DHT22;48368;53.406;6.214;2023-04-25T08:31:43;8.70;99.90
62339;DHT22;48368;53.406;6.214;2023-04-25T08:34:08;8.90;99.90
62339;DHT22;48368;53.406;6.214;2023-04-25T08:36:35;9.00;99.90
62339;DHT22;48368;53.406;6.214;2023-04-25T08:39:00;9.00;99.90
62339;DHT22;48368;53.406;6.214;2023-04-25T08:41:27;9.10;99.90
62339;DHT22;48368;53.406;6.214;2023-04-25T08:43:53;9.30;99.90
62339;DHT22;48368;53.406;6.214;2023-04-25T08:46:21;9.50;99.90
62339;DHT22;48368;53.406;6.214;2023-04-25T08:48:49;9.60;99.90
62339;DHT22;48368;53.406;6.214;2023-04-25T08:51:22;9.60;99.90
62339;DHT22;48368;53.406;6.214;2023-04-25T08:53:51;9.30;99.90
62339;DHT22;48368;53.406;6.214;2023-04-25T08:56:18;9.10;99.90
62339;DHT22;48368;53.406;6.214;2023-04-25T08:58:48;8.90;99.90
62339;DHT22;48368;53.406;6.214;2023-04-25T09:01:13;8.70;99.90
62339;DHT22;48368;53.406;6.214;2023-04-25T09:03:39;8.90;99.90
62339;DHT22;48368;53.406;6.214;2023-04-25T09:06:05;9.00;99.90
62339;DHT22;48368;53.406;6.214;2023-04-25T09:08:31;9.00;99.90
62339;DHT22;48368;53.406;6.214;2023-04-25T09:10:57;8.90;99.90
62339;DHT22;48368;53.406;6.214;2023-04-25T09:13:27;8.90;99.90
62339;DHT22;48368;53.406;6.214;2023-04-25T09:15:54;9.00;99.90
62339;DHT22;48368;53.406;6.214;2023-04-25T09:20:52;8.90;99.90
62339;DHT22;48368;53.406;6.214;2023-04-25T09:23:20;9.00;99.90
62339;DHT22;48368;53.406;6.214;2023-04-25T09:25:53;9.30;99.90
62339;DHT22;48368;53.406;6.214;2023-04-25T09:28:28;9.40;99.90
62339;DHT22;48368;53.406;6.214;2023-04-25T09:30:56;9.50;99.90
62339;DHT22;48368;53.406;6.214;2023-04-25T09:33:28;9.70;99.90
62339;DHT22;48368;53.406;6.214;2023-04-25T09:36:04;9.80;99.90
62339;DHT22;48368;53.406;6.214;2023-04-25T09:38:32;10.00;99.90
62339;DHT22;48368;53.406;6.214;2023-04-25T09:40:58;10.20;99.90
62339;DHT22;48368;53.406;6.214;2023-04-25T09:43:26;10.10;99.90
62339;DHT22;48368;53.406;6.214;2023-04-25T09:45:54;10.10;99.90
62339;DHT22;48368;53.406;6.214;2023-04-25T09:48:23;10.00;99.90
62339;DHT22;48368;53.406;6.214;2023-04-25T09:51:05;10.00;99.90
62339;DHT22;48368;53.406;6.214;2023-04-25T09:53:33;9.80;99.90
62339;DHT22;48368;53.406;6.214;2023-04-25T09:56:00;10.10;99.90
62339;DHT22;48368;53.406;6.214;2023-04-25T09:58:29;10.30;99.90
62339;DHT22;48368;53.406;6.214;2023-04-25T10:00:59;10.50;99.90
62339;DHT22;48368;53.406;6.214;2023-04-25T10:03:25;10.70;99.90
62339;DHT22;48368;53.406;6.214;2023-04-25T10:05:52;10.60;99.90
62339;DHT22;48368;53.406;6.214;2023-04-25T10:08:20;10.50;99.90
62339;DHT22;48368;53.406;6.214;2023-04-25T10:10:46;10.00;99.90
62339;DHT22;48368;53.406;6.214;2023-04-25T10:13:14;9.60;99.90
62339;DHT22;48368;53.406;6.214;2023-04-25T10:15:41;9.30;99.90
62339;DHT22;48368;53.406;6.214;2023-04-25T10:18:07;9.10;99.90
62339;DHT22;48368;53.406;6.214;2023-04-25T10:20:33;8.90;99.90
62339;DHT22;48368;53.406;6.214;2023-04-25T10:23:12;8.80;99.90
62339;DHT22;48368;53.406;6.214;2023-04-25T10:25:39;9.10;99.90
62339;DHT22;48368;53.406;6.214;2023-04-25T10:28:05;9.30;99.90
62339;DHT22;48368;53.406;6.214;2023-04-25T10:30:31;9.50;99.90
62339;DHT22;48368;53.406;6.214;2023-04-25T10:32:58;9.30;99.90
62339;DHT22;48368;53.406;6.214;2023-04-25T10:35:28;9.30;99.90
62339;DHT22;48368;53.406;6.214;2023-04-25T10:38:13;9.40;99.90
62339;DHT22;48368;53.406;6.214;2023-04-25T10:40:39;9.40;99.90
62339;DHT22;48368;53.406;6.214;2023-04-25T10:43:41;9.50;99.90
62339;DHT22;48368;53.406;6.214;2023-04-25T10:46:17;9.60;99.90
62339;DHT22;48368;53.406;6.214;2023-04-25T10:48:51;9.60;99.90
62339;DHT22;48368;53.406;6.214;2023-04-25T10:51:23;9.70;99.90
62339;DHT22;48368;53.406;6.214;2023-04-25T10:56:21;9.80;99.90
62339;DHT22;48368;53.406;6.214;2023-04-25T10:58:48;9.90;99.90
62339;DHT22;48368;53.406;6.214;2023-04-25T11:01:15;10.00;99.90
62339;DHT22;48368;53.406;6.214;2023-04-25T11:03:44;10.00;99.90
62339;DHT22;48368;53.406;6.214;2023-04-25T11:06:29;10.00;99.90
62339;DHT22;48368;53.406;6.214;2023-04-25T11:08:57;10.20;99.90
62339;DHT22;48368;53.406;6.214;2023-04-25T11:11:25;10.30;99.90
62339;DHT22;48368;53.406;6.214;2023-04-25T11:13:51;10.40;99.90
62339;DHT22;48368;53.406;6.214;2023-04-25T11:16:17;10.40;99.90
62339;DHT22;48368;53.406;6.214;2023-04-25T11:18:43;10.60;99.90
62339;DHT22;48368;53.406;6.214;2023-04-25T11:21:10;10.70;99.90
62339;DHT22;48368;53.406;6.214;2023-04-25T11:23:37;10.70;99.90
62339;DHT22;48368;53.406;6.214;2023-04-25T11:26:03;10.70;99.90
62339;DHT22;48368;53.406;6.214;2023-04-25T11:28:32;10.70;99.90
62339;DHT22;48368;53.406;6.214;2023-04-25T11:30:58;10.60;99.90
62339;DHT22;48368;53.406;6.214;2023-04-25T11:33:24;10.60;99.90
62339;DHT22;48368;53.406;6.214;2023-04-25T11:35:53;10.60;99.90
62339;DHT22;48368;53.406;6.214;2023-04-25T11:38:20;10.70;99.90
62339;DHT22;48368;53.406;6.214;2023-04-25T11:40:50;10.70;99.90
62339;DHT22;48368;53.406;6.214;2023-04-25T11:43:17;10.70;99.90
62339;DHT22;48368;53.406;6.214;2023-04-25T11:45:46;10.60;99.90
62339;DHT22;48368;53.406;6.214;2023-04-25T11:48:13;10.70;99.90
62339;DHT22;48368;53.406;6.214;2023-04-25T11:50:39;10.60;99.90
62339;DHT22;48368;53.406;6.214;2023-04-25T11:53:05;10.40;99.90
62339;DHT22;48368;53.406;6.214;2023-04-25T11:55:31;10.60;99.90
62339;DHT22;48368;53.406;6.214;2023-04-25T11:57:59;10.50;99.90
62339;DHT22;48368;53.406;6.214;2023-04-25T12:00:26;10.40;99.90
62339;DHT22;48368;53.406;6.214;2023-04-25T12:02:53;10.40;99.90
62339;DHT22;48368;53.406;6.214;2023-04-25T12:05:19;10.40;99.90
62339;DHT22;48368;53.406;6.214;2023-04-25T12:07:46;10.60;99.90
62339;DHT22;48368;53.406;6.214;2023-04-25T12:10:13;10.70;99.90
62339;DHT22;48368;53.406;6.214;2023-04-25T12:12:43;10.80;99.90
62339;DHT22;48368;53.406;6.214;2023-04-25T12:15:14;10.80;99.90
62339;DHT22;48368;53.406;6.214;2023-04-25T12:17:51;10.80;99.90
62339;DHT22;48368;53.406;6.214;2023-04-25T12:20:19;10.90;99.90
62339;DHT22;48368;53.406;6.214;2023-04-25T12:22:49;10.90;99.90
62339;DHT22;48368;53.406;6.214;2023-04-25T12:25:40;11.10;99.90
62339;DHT22;48368;53.406;6.214;2023-04-25T12:28:20;11.00;99.90
62339;DHT22;48368;53.406;6.214;2023-04-25T12:33:34;10.60;99.90
62339;DHT22;48368;53.406;6.214;2023-04-25T12:36:01;10.70;99.90
62339;DHT22;48368;53.406;6.214;2023-04-25T12:38:38;10.80;99.90
62339;DHT22;48368;53.406;6.214;2023-04-25T12:41:04;10.90;99.90
62339;DHT22;48368;53.406;6.214;2023-04-25T12:43:30;10.90;99.90
62339;DHT22;48368;53.406;6.214;2023-04-25T12:45:56;11.00;99.90
62339;DHT22;48368;53.406;6.214;2023-04-25T12:48:22;10.70;99.90
62339;DHT22;48368;53.406;6.214;2023-04-25T12:50:49;10.90;99.90
62339;DHT22;48368;53.406;6.214;2023-04-25T12:53:22;10.80;99.90
62339;DHT22;48368;53.406;6.214;2023-04-25T12:55:49;11.00;99.90
62339;DHT22;48368;53.406;6.214;2023-04-25T12:58:15;10.90;99.90
62339;DHT22;48368;53.406;6.214;2023-04-25T13:00:41;10.90;99.90
62339;DHT22;48368;53.406;6.214;2023-04-25T13:03:08;11.10;99.90
62339;DHT22;48368;53.406;6.214;2023-04-25T13:05:34;11.10;99.90
62339;DHT22;48368;53.406;6.214;2023-04-25T13:08:00;11.20;99.90
62339;DHT22;48368;53.406;6.214;2023-04-25T13:10:26;11.20;99.90
62339;DHT22;48368;53.406;6.214;2023-04-25T13:12:52;11.10;99.90
62339;DHT22;48368;53.406;6.214;2023-04-25T13:15:17;11.20;99.90
62339;DHT22;48368;53.406;6.214;2023-04-25T13:17:43;11.20;99.90
62339;DHT22;48368;53.406;6.214;2023-04-25T13:20:09;11.20;99.90
62339;DHT22;48368;53.406;6.214;2023-04-25T13:22:42;11.00;99.90
62339;DHT22;48368;53.406;6.214;2023-04-25T13:25:08;11.10;99.90
62339;DHT22;48368;53.406;6.214;2023-04-25T13:27:35;11.10;99.90
62339;DHT22;48368;53.406;6.214;2023-04-25T13:30:03;11.20;99.90
62339;DHT22;48368;53.406;6.214;2023-04-25T13:32:36;11.10;99.90
62339;DHT22;48368;53.406;6.214;2023-04-25T13:35:08;11.10;99.90
62339;DHT22;48368;53.406;6.214;2023-04-25T13:37:34;10.80;99.90
62339;DHT22;48368;53.406;6.214;2023-04-25T13:40:04;10.80;99.90
62339;DHT22;48368;53.406;6.214;2023-04-25T13:42:33;10.90;99.90
62339;DHT22;48368;53.406;6.214;2023-04-25T13:44:59;11.00;99.90
62339;DHT22;48368;53.406;6.214;2023-04-25T13:47:25;11.10;99.90
62339;DHT22;48368;53.406;6.214;2023-04-25T13:49:51;11.00;99.90
62339;DHT22;48368;53.406;6.214;2023-04-25T13:52:17;10.90;99.90
62339;DHT22;48368;53.406;6.214;2023-04-25T13:54:44;10.90;99.90
62339;DHT22;48368;53.406;6.214;2023-04-25T13:57:10;10.90;99.90
62339;DHT22;48368;53.406;6.214;2023-04-25T13:59:37;10.80;99.90
62339;DHT22;48368;53.406;6.214;2023-04-25T14:02:03;10.70;99.90
62339;DHT22;48368;53.406;6.214;2023-04-25T14:04:28;10.80;99.90
62339;DHT22;48368;53.406;6.214;2023-04-25T14:06:55;10.70;99.90
62339;DHT22;48368;53.406;6.214;2023-04-25T14:09:21;10.90;99.90
62339;DHT22;48368;53.406;6.214;2023-04-25T14:11:51;11.00;99.90
62339;DHT22;48368;53.406;6.214;2023-04-25T14:14:18;10.90;99.90
62339;DHT22;48368;53.406;6.214;2023-04-25T14:16:43;10.80;99.90
62339;DHT22;48368;53.406;6.214;2023-04-25T14:19:09;10.60;99.90
62339;DHT22;48368;53.406;6.214;2023-04-25T14:21:35;10.70;99.90
62339;DHT22;48368;53.406;6.214;2023-04-25T14:24:00;10.70;99.90
62339;DHT22;48368;53.406;6.214;2023-04-25T14:26:26;10.70;99.90
62339;DHT22;48368;53.406;6.214;2023-04-25T14:28:52;10.70;99.90
62339;DHT22;48368;53.406;6.214;2023-04-25T14:31:18;10.70;99.90
62339;DHT22;48368;53.406;6.214;2023-04-25T14:33:44;10.60;99.90
62339;DHT22;48368;53.406;6.214;2023-04-25T14:36:11;10.60;99.90
62339;DHT22;48368;53.406;6.214;2023-04-25T14:38:36;10.60;99.90
62339;DHT22;48368;53.406;6.214;2023-04-25T14:41:02;10.70;99.90
62339;DHT22;48368;53.406;6.214;2023-04-25T14:43:28;10.70;99.90
62339;DHT22;48368;53.406;6.214;2023-04-25T14:45:53;10.70;99.90
62339;DHT22;48368;53.406;6.214;2023-04-25T14:48:19;10.40;99.90
62339;DHT22;48368;53.406;6.214;2023-04-25T14:50:45;10.40;99.90
62339;DHT22;48368;53.406;6.214;2023-04-25T14:53:12;10.30;99.90
62339;DHT22;48368;53.406;6.214;2023-04-25T14:55:38;10.50;99.90
62339;DHT22;48368;53.406;6.214;2023-04-25T14:58:03;10.40;99.90
62339;DHT22;48368;53.406;6.214;2023-04-25T15:00:29;10.30;99.90
62339;DHT22;48368;53.406;6.214;2023-04-25T15:02:57;10.30;99.90
62339;DHT22;48368;53.406;6.214;2023-04-25T15:05:23;10.30;99.90
62339;DHT22;48368;53.406;6.214;2023-04-25T15:07:49;10.30;99.90
62339;DHT22;48368;53.406;6.214;2023-04-25T15:10:16;10.30;99.90
62339;DHT22;48368;53.406;6.214;2023-04-25T15:12:45;10.30;99.90
62339;DHT22;48368;53.406;6.214;2023-04-25T15:15:11;10.30;99.90
62339;DHT22;48368;53.406;6.214;2023-04-25T15:17:45;10.30;99.90
62339;DHT22;48368;53.406;6.214;2023-04-25T15:20:12;10.20;99.90
62339;DHT22;48368;53.406;6.214;2023-04-25T15:22:43;10.20;99.90
62339;DHT22;48368;53.406;6.214;2023-04-25T15:25:10;10.20;99.90
62339;DHT22;48368;53.406;6.214;2023-04-25T15:27:39;10.10;99.90
62339;DHT22;48368;53.406;6.214;2023-04-25T15:30:12;10.00;99.90
62339;DHT22;48368;53.406;6.214;2023-04-25T15:32:41;10.10;99.90
62339;DHT22;48368;53.406;6.214;2023-04-25T15:35:07;10.10;99.90
62339;DHT22;48368;53.406;6.214;2023-04-25T15:37:33;10.20;99.90
62339;DHT22;48368;53.406;6.214;2023-04-25T15:40:03;10.10;99.90
62339;DHT22;48368;53.406;6.214;2023-04-25T15:42:41;10.00;99.90
62339;DHT22;48368;53.406;6.214;2023-04-25T15:45:09;9.90;99.90
62339;DHT22;48368;53.406;6.214;2023-04-25T15:47:36;9.80;99.90